Terminal Aerodrome Forecast
Issued by NWS

Home | Current Version | Previous Version | Text Only | Print | Product List | Glossary On
Versions: 1 2 3 4 5 6 7 8 9 10 11 12 13 14 15 16 17 18 19 20 21 22 23 24 25 26 27 28 29
000
FTUS42 KMFL 222113 AAA
TAFOPF
TAF AMD
KOPF 222113Z 2221/2318 11005KT P6SM VCSH FEW025 SCT040 OVC100
      TEMPO 2221/2222 3SM RA SCT025 BKN040 OVC100
     FM222300 19010KT P6SM VCSH SCT030 BKN050 OVC080
     FM230500 VRB04KT P6SM SCT030 SCT050 BKN100
     FM231400 27008KT P6SM BKN250=

USA.gov is the U.S. government's official web portal to all federal, state and local government web resources and services.